Gujrat Weather



Gujrat's Current Weather

Temprature 35.98o clear sky

clear sky

Rain: 0 %

Min Temprature35.98o
Max Temprature35.98o
Humidity27
Wind Speed2.29 m/h
Sun Rise05:12:19
Sun Set19:07:44
Current Time: 24-Jul-2021 16:08:14
Lat/Lon: 32.5728, 74.079




Gujrat's Geo Location



Gujrat's Weather Forecast

Time Overall Temp Min Temp Max Temp Humidity Wind Speed Rain
24-Jul-2021 (Sat)
17:00:00 clear sky 35.980 35.980 40.930 26 2.34 m/h 0 %
20:00:00 clear sky 36.680 36.680 38.070 28 1.68 m/h 0 %
23:00:00 clear sky 36.370 36.370 36.570 32 1.69 m/h 0 %
25-Jul-2021 (Sun)
02:00:00 broken clouds 34.210 34.210 34.210 48 1.87 m/h 0 %
05:00:00 broken clouds 32.860 32.860 32.860 55 2.75 m/h 0 %
08:00:00 overcast clouds 35.870 35.870 35.870 46 2.55 m/h 0 %
11:00:00 overcast clouds 39.900 39.900 39.900 34 2.36 m/h 0 %
14:00:00 scattered clouds 42.520 42.520 42.520 25 2.34 m/h 0 %
17:00:00 scattered clouds 42.600 42.600 42.600 24 1.72 m/h 0 %
20:00:00 broken clouds 36.230 36.230 36.230 48 6.1 m/h 0 %
23:00:00 broken clouds 34.460 34.460 34.460 55 5.2 m/h 0 %
26-Jul-2021 (Mon)
02:00:00 overcast clouds 31.960 31.960 31.960 65 5.03 m/h 0 %
05:00:00 overcast clouds 30.800 30.800 30.800 70 5.47 m/h 0 %
08:00:00 broken clouds 33.030 33.030 33.030 62 5.45 m/h 0 %
11:00:00 broken clouds 37.570 37.570 37.570 46 4.42 m/h 0 %
14:00:00 scattered clouds 40.650 40.650 40.650 36 3.17 m/h 0 %
17:00:00 scattered clouds 39.680 39.680 39.680 38 5 m/h 0 %
20:00:00 light rain 34.030 34.030 34.030 59 7.08 m/h 32 %
23:00:00 light rain 29.430 29.430 29.430 81 6.46 m/h 189 %
27-Jul-2021 (Tue)
02:00:00 light rain 28.760 28.760 28.760 83 6.75 m/h 39 %
05:00:00 overcast clouds 27.960 27.960 27.960 86 5.28 m/h 0 %
08:00:00 overcast clouds 28.510 28.510 28.510 82 4.94 m/h 0 %
11:00:00 broken clouds 34.660 34.660 34.660 55 4.12 m/h 0 %
14:00:00 overcast clouds 36.850 36.850 36.850 47 4.6 m/h 0 %
17:00:00 light rain 33.220 33.220 33.220 61 7.56 m/h 83 %
20:00:00 light rain 29.110 29.110 29.110 78 7.06 m/h 158 %
23:00:00 moderate rain 27.590 27.590 27.590 83 6.71 m/h 315 %
28-Jul-2021 (Wed)
02:00:00 light rain 26.770 26.770 26.770 85 4.83 m/h 69 %
05:00:00 moderate rain 26.100 26.100 26.100 89 4.18 m/h 399 %
08:00:00 light rain 26.850 26.850 26.850 87 4.29 m/h 291 %
11:00:00 light rain 27.090 27.090 27.090 87 4.63 m/h 184 %
14:00:00 light rain 27.070 27.070 27.070 86 4.35 m/h 189 %
17:00:00 light rain 26.310 26.310 26.310 89 4.01 m/h 229 %
20:00:00 light rain 26.080 26.080 26.080 91 3.38 m/h 11 %
23:00:00 overcast clouds 25.990 25.990 25.990 91 2.52 m/h 0 %
29-Jul-2021 (Thu)
02:00:00 light rain 25.640 25.640 25.640 92 1.92 m/h 10 %
05:00:00 light rain 25.330 25.330 25.330 93 1.9 m/h 22 %
08:00:00 few clouds 28.320 28.320 28.320 78 2.38 m/h 0 %
11:00:00 scattered clouds 32.740 32.740 32.740 59 1.11 m/h 0 %
14:00:00 overcast clouds 35.080 35.080 35.080 50 0.3 m/h 0 %

Famous Cities (60)